Time;durP1;ratioP1;P1;durP2;ratioP2;P2;SDS_P1;SDS_P2;PMS_P1;PMS_P2;Temp;Humidity;BMP_temperature;BMP_pressure;BME280_temperature;BME280_humidity;BME280_pressure;Samples;Min_cycle;Max_cycle;Signal;HPM_P1;HPM_P2
2022/06/24 12:53:50;;;;;;;1.83;0.80;;;;;;;28.37;39.25;100432.69;6107525;23;20032;-46
2022/06/24 12:56:18;;;;;;;6.13;0.90;;;;;;;28.38;39.06;100423.00;6246510;23;20087;-44
2022/06/24 12:58:45;;;;;;;4.75;1.10;;;;;;;28.35;39.44;100422.13;6246076;23;20057;-43
2022/06/24 13:01:13;;;;;;;2.95;0.75;;;;;;;28.37;39.40;100418.59;6246231;23;20008;-48
2022/06/24 13:03:41;;;;;;;3.45;0.80;;;;;;;28.34;39.40;100415.13;6245196;23;20438;-50
2022/06/24 13:06:10;;;;;;;7.15;1.17;;;;;;;28.32;39.34;100405.50;6247105;23;20020;-43
2022/06/24 13:08:37;;;;;;;5.30;0.85;;;;;;;28.32;39.42;100409.00;6246684;23;20019;-45
2022/06/24 13:11:06;;;;;;;4.97;0.90;;;;;;;28.26;39.62;100408.22;6246573;23;20039;-44
2022/06/24 13:13:36;;;;;;;5.82;0.82;;;;;;;28.30;39.55;100391.44;6219932;23;20435;-42
2022/06/24 13:16:05;;;;;;;3.00;0.90;;;;;;;28.26;39.78;100392.38;6246689;23;20091;-46
2022/06/24 13:18:34;;;;;;;3.85;1.33;;;;;;;28.30;39.66;100394.09;6246647;23;20330;-42
2022/06/24 13:21:02;;;;;;;4.13;0.90;;;;;;;28.30;39.65;100387.03;6245296;23;20012;-44
2022/06/24 13:23:30;;;;;;;4.35;0.95;;;;;;;28.16;39.88;100387.25;6247015;23;20000;-47
2022/06/24 13:25:58;;;;;;;5.85;1.15;;;;;;;28.20;39.84;100382.78;6246765;23;20443;-46
2022/06/24 13:28:27;;;;;;;3.15;0.98;;;;;;;28.25;39.46;100380.97;6245195;23;20381;-49
2022/06/24 13:30:55;;;;;;;3.35;1.02;;;;;;;28.13;40.02;100389.06;6246869;23;20426;-46
2022/06/24 13:33:24;;;;;;;5.18;0.90;;;;;;;28.05;40.00;100371.53;6246739;23;20019;-52
2022/06/24 13:35:52;;;;;;;3.67;0.98;;;;;;;28.07;40.28;100387.31;6246437;23;20317;-47
2022/06/24 13:38:22;;;;;;;5.57;1.13;;;;;;;28.07;40.28;100379.41;6246584;23;20004;-48
2022/06/24 13:40:51;;;;;;;2.90;0.80;;;;;;;27.96;40.31;100373.44;6246358;23;20383;-46
2022/06/24 13:43:20;;;;;;;8.10;1.08;;;;;;;28.04;40.21;100367.16;6246510;23;20513;-50
2022/06/24 13:45:48;;;;;;;3.92;1.33;;;;;;;28.00;40.63;100369.88;6219784;23;20012;-47
2022/06/24 13:48:16;;;;;;;4.10;0.85;;;;;;;27.94;40.56;100364.66;6245307;23;20008;-49
2022/06/24 13:50:45;;;;;;;4.50;1.20;;;;;;;27.93;40.53;100358.53;6246618;23;20431;-53
2022/06/24 13:53:14;;;;;;;4.40;1.00;;;;;;;27.85;40.63;100352.47;6246684;23;20000;-43
2022/06/24 13:55:42;;;;;;;5.35;1.35;;;;;;;27.79;41.07;100357.84;6246115;23;20016;-47
2022/06/24 13:58:12;;;;;;;3.75;0.98;;;;;;;27.84;40.87;100356.00;6246772;23;20050;-48
2022/06/24 14:00:41;;;;;;;5.95;0.90;;;;;;;27.85;40.96;100341.94;6246138;23;20038;-52
2022/06/24 14:03:09;;;;;;;5.75;0.85;;;;;;;27.82;40.90;100340.22;6246117;23;20077;-48
2022/06/24 14:05:38;;;;;;;4.68;1.08;;;;;;;27.77;41.09;100334.13;6246473;23;20003;-46
2022/06/24 14:08:07;;;;;;;2.72;1.08;;;;;;;27.77;41.49;100342.03;6245879;23;20054;-47
2022/06/24 14:10:35;;;;;;;2.85;0.80;;;;;;;27.62;41.41;100326.41;6247274;23;20027;-43
2022/06/24 14:13:04;;;;;;;5.07;1.23;;;;;;;27.67;41.28;100330.72;6246347;23;20004;-48
2022/06/24 14:15:33;;;;;;;3.95;0.90;;;;;;;27.69;41.22;100342.13;6219837;23;19996;-46
2022/06/24 14:18:01;;;;;;;5.50;1.27;;;;;;;27.74;41.13;100335.03;6246115;23;20431;-44
2022/06/24 14:20:30;;;;;;;8.32;0.90;;;;;;;27.84;41.03;100340.19;6219530;23;20061;-47
2022/06/24 14:25:46;;;;;;;6.45;1.20;;;;;;;27.94;40.70;100330.38;6235239;23;20008;-50
2022/06/24 14:28:14;;;;;;;5.13;1.10;;;;;;;27.93;40.99;100337.44;6245933;23;20020;-47
2022/06/24 14:30:43;;;;;;;6.60;1.48;;;;;;;27.93;40.72;100334.81;6246350;23;20007;-54
2022/06/24 14:33:12;;;;;;;3.03;0.88;;;;;;;27.95;40.56;100338.28;6245621;23;20079;-46
2022/06/24 14:35:40;;;;;;;5.53;1.48;;;;;;;27.87;40.94;100321.69;6246288;23;20000;-47
2022/06/24 14:40:59;;;;;;;3.22;0.77;;;;;;;27.96;40.57;100328.59;6229006;23;20008;-47
2022/06/24 14:43:28;;;;;;;3.55;0.98;;;;;;;27.98;40.56;100334.72;6246321;23;20469;-48
2022/06/24 14:45:56;;;;;;;3.20;1.10;;;;;;;27.96;40.70;100332.13;6245486;23;20080;-45
2022/06/24 14:48:25;;;;;;;4.82;1.08;;;;;;;27.96;40.47;100333.88;6246003;23;20031;-47
2022/06/24 14:50:54;;;;;;;2.95;1.00;;;;;;;27.98;40.51;100340.00;6245909;23;20434;-49
2022/06/24 14:53:22;;;;;;;3.40;0.85;;;;;;;27.96;40.52;100332.13;6245658;23;20008;-44
2022/06/24 14:55:50;;;;;;;4.20;1.05;;;;;;;27.84;40.76;100325.25;6245664;23;20414;-47
2022/06/24 14:58:19;;;;;;;2.17;0.88;;;;;;;27.90;40.58;100327.78;6245721;23;20016;-44
2022/06/24 15:00:47;;;;;;;5.60;1.30;;;;;;;27.95;40.48;100332.13;6245953;23;20411;-47
2022/06/24 15:03:16;;;;;;;3.55;1.40;;;;;;;27.94;40.60;100335.66;6244765;23;20000;-45
2022/06/24 15:05:45;;;;;;;2.50;0.68;;;;;;;27.97;40.62;100336.47;6245863;23;19996;-44
2022/06/24 15:08:14;;;;;;;4.60;0.95;;;;;;;28.00;40.39;100335.59;6245721;23;20004;-43
2022/06/24 15:10:43;;;;;;;4.93;1.15;;;;;;;27.95;40.43;100332.13;6244446;23;20050;-48
2022/06/24 15:13:11;;;;;;;2.83;1.02;;;;;;;27.94;40.46;100333.03;6246094;23;20058;-45
2022/06/24 15:15:40;;;;;;;2.45;0.80;;;;;;;27.96;40.52;100332.13;6218762;23;20015;-45
2022/06/24 15:18:08;;;;;;;4.57;1.30;;;;;;;27.97;40.56;100330.34;6245760;23;20004;-44
2022/06/24 15:20:37;;;;;;;3.90;0.80;;;;;;;27.97;40.21;100325.94;6245554;23;20046;-46
2022/06/24 15:23:06;;;;;;;5.00;1.08;;;;;;;27.91;40.63;100318.13;6245846;23;20000;-45
2022/06/24 15:25:35;;;;;;;3.90;1.05;;;;;;;27.89;40.62;100318.13;6246506;23;20004;-45
2022/06/24 15:28:04;;;;;;;3.65;0.98;;;;;;;27.85;40.77;100312.94;6246060;23;20000;-47
2022/06/24 15:30:33;;;;;;;4.45;1.02;;;;;;;27.84;40.54;100317.34;6246155;23;20085;-49
2022/06/24 15:33:01;;;;;;;3.22;1.10;;;;;;;27.79;40.69;100291.97;6245562;23;20004;-45
2022/06/24 15:35:30;;;;;;;5.20;1.30;;;;;;;27.92;40.77;100321.63;6245475;23;20378;-46
2022/06/24 15:37:58;;;;;;;3.85;1.10;;;;;;;27.99;40.45;100323.31;6245816;23;20427;-46
2022/06/24 15:40:27;;;;;;;3.45;1.15;;;;;;;28.02;40.76;100331.16;6245848;23;20004;-44
2022/06/24 15:42:56;;;;;;;4.68;1.00;;;;;;;28.02;40.58;100324.13;6245508;23;20316;-43
2022/06/24 15:45:25;;;;;;;3.38;1.15;;;;;;;28.05;40.64;100320.56;6244994;23;20439;-45
2022/06/24 15:47:54;;;;;;;2.25;0.80;;;;;;;28.06;40.41;100322.31;6245464;23;20015;-49
2022/06/24 15:50:23;;;;;;;3.55;0.80;;;;;;;28.10;40.39;100328.47;6245133;23;20079;-44
2022/06/24 15:52:53;;;;;;;2.72;1.00;;;;;;;28.10;40.54;100331.94;6246013;23;20422;-47
2022/06/24 15:55:21;;;;;;;2.55;1.00;;;;;;;28.11;40.52;100327.56;6245547;23;20027;-46
2022/06/24 15:57:50;;;;;;;4.00;1.10;;;;;;;28.08;40.66;100330.22;6247070;23;20043;-44
2022/06/24 16:00:18;;;;;;;5.13;1.30;;;;;;;28.08;40.67;100338.13;6247838;23;20012;-43
2022/06/24 16:02:47;;;;;;;5.88;0.90;;;;;;;28.04;40.62;100351.34;6247932;23;20103;-44
2022/06/24 16:05:15;;;;;;;6.18;1.15;;;;;;;27.98;40.67;100338.22;6247850;23;20004;-48
2022/06/24 16:07:44;;;;;;;6.45;1.40;;;;;;;28.03;40.75;100339.03;6247971;23;20008;-46
2022/06/24 16:10:12;;;;;;;6.05;1.35;;;;;;;28.08;40.79;100346.88;6247839;23;20008;-43
2022/06/24 16:12:41;;;;;;;5.47;0.90;;;;;;;28.12;40.58;100348.63;6247303;23;20004;-46
2022/06/24 16:15:10;;;;;;;5.25;1.20;;;;;;;28.10;40.67;100349.56;6247602;23;20443;-44
2022/06/24 16:17:38;;;;;;;5.15;1.45;;;;;;;28.08;40.65;100338.97;6247718;23;20104;-46
2022/06/24 16:20:07;;;;;;;5.13;1.35;;;;;;;28.12;40.56;100347.78;6220851;23;20079;-44
2022/06/24 16:22:36;;;;;;;4.35;1.35;;;;;;;28.07;40.38;100342.50;6247869;23;20004;-43
2022/06/24 16:30:41;;;;;;;4.35;1.42;;;;;;;28.13;40.49;100353.00;6231536;23;20004;-43
2022/06/24 16:33:10;;;;;;;3.85;1.38;;;;;;;28.13;40.70;100357.44;6247755;23;20008;-43
2022/06/24 16:35:40;;;;;;;9.07;1.88;;;;;;;28.03;40.94;100352.22;6246871;23;20035;-45
2022/06/24 16:38:09;;;;;;;3.58;1.25;;;;;;;28.12;40.56;100347.78;6248087;23;20078;-43
2022/06/24 16:40:38;;;;;;;5.10;1.30;;;;;;;28.12;40.63;100346.00;6247249;23;20048;-45
2022/06/24 16:43:15;;;;;;;5.68;1.13;;;;;;;28.07;40.61;100353.03;6247621;23;20008;-44
2022/06/24 16:45:54;;;;;;;4.45;1.27;;;;;;;28.03;40.92;100362.78;6247515;23;20142;-43
2022/06/24 16:48:24;;;;;;;7.85;1.52;;;;;;;28.01;40.50;100351.38;6247098;23;20335;-44
2022/06/24 16:50:53;;;;;;;7.35;2.03;;;;;;;28.10;40.45;100366.22;6247321;23;20023;-43
2022/06/24 16:53:22;;;;;;;4.53;2.25;;;;;;;28.02;40.57;100361.03;6220352;23;20004;-43
2022/06/24 16:55:51;;;;;;;3.42;1.20;;;;;;;28.09;40.57;100371.50;6219964;23;20316;-43
2022/06/24 16:58:20;;;;;;;6.10;1.42;;;;;;;28.11;40.70;100367.13;6247396;23;20011;-43
2022/06/24 17:00:49;;;;;;;5.68;1.42;;;;;;;28.07;40.51;100366.22;6247694;23;20018;-44
2022/06/24 17:03:18;;;;;;;5.53;1.33;;;;;;;28.11;40.61;100380.31;6195206;23;20012;-43
2022/06/24 17:05:46;;;;;;;3.05;1.00;;;;;;;28.10;40.56;100386.47;6246997;23;20058;-43
2022/06/24 17:08:15;;;;;;;6.25;1.63;;;;;;;28.05;40.51;100382.09;6245398;23;20425;-43
2022/06/24 17:10:43;;;;;;;4.22;1.42;;;;;;;28.10;39.94;100376.78;6245714;23;20008;-43
2022/06/24 17:13:13;;;;;;;5.30;1.17;;;;;;;28.09;40.36;100388.19;6247394;23;20035;-43
2022/06/24 17:15:42;;;;;;;7.68;1.60;;;;;;;28.08;40.24;100393.50;6220721;23;20087;-43
2022/06/24 17:18:11;;;;;;;3.50;1.13;;;;;;;27.99;40.81;100400.59;6221082;23;20005;-43
2022/06/24 17:20:39;;;;;;;5.35;1.60;;;;;;;28.01;40.69;100396.19;6247181;23;20000;-45
2022/06/24 17:23:08;;;;;;;5.38;1.63;;;;;;;28.04;40.32;100403.22;6245500;23;20427;-44
2022/06/24 17:25:37;;;;;;;3.33;1.10;;;;;;;28.03;40.55;100394.41;6221427;23;20055;-43
2022/06/24 17:28:05;;;;;;;5.00;1.38;;;;;;;28.02;40.42;100399.72;6246698;23;20035;-43
2022/06/24 17:30:34;;;;;;;4.93;1.42;;;;;;;28.01;40.47;100400.59;6247126;23;20377;-44
2022/06/24 17:33:03;;;;;;;4.82;1.13;;;;;;;28.07;40.22;100413.69;6246953;23;20004;-43
2022/06/24 17:35:31;;;;;;;4.05;1.38;;;;;;;27.99;40.44;100413.78;6246341;23;20000;-48
2022/06/24 17:38:00;;;;;;;4.53;1.52;;;;;;;28.05;40.35;100421.63;6219788;23;20331;-43
2022/06/24 17:40:29;;;;;;;4.20;1.15;;;;;;;27.96;40.20;100403.31;6219511;23;20443;-44
2022/06/24 17:42:57;;;;;;;4.07;1.35;;;;;;;28.05;40.35;100437.44;6220462;23;20007;-43
2022/06/24 17:45:26;;;;;;;4.43;0.93;;;;;;;28.04;40.31;100440.97;6246824;23;20083;-47
2022/06/24 17:47:55;;;;;;;4.68;1.42;;;;;;;28.08;40.48;100433.91;6246982;23;20023;-43
2022/06/24 17:50:23;;;;;;;5.80;1.33;;;;;;;28.11;40.44;100436.53;6219705;23;20005;-45
2022/06/24 17:52:52;;;;;;;3.67;1.20;;;;;;;28.08;40.06;100443.59;6195207;23;20335;-46
2022/06/24 17:55:21;;;;;;;3.95;1.30;;;;;;;28.06;40.40;100446.22;6192866;23;20459;-43
2022/06/24 17:57:49;;;;;;;5.38;1.65;;;;;;;28.11;40.19;100444.44;6186686;23;20001;-43
2022/06/24 18:00:18;;;;;;;5.43;1.27;;;;;;;28.16;40.02;100452.28;6187241;23;20467;-43
2022/06/24 18:02:46;;;;;;;3.22;1.20;;;;;;;28.13;40.13;100455.84;6186073;23;20340;-42
2022/06/24 18:05:15;;;;;;;4.13;1.08;;;;;;;28.09;40.13;100456.75;6186004;23;20005;-43
2022/06/24 18:07:45;;;;;;;6.35;1.35;;;;;;;28.08;40.16;100465.53;6184724;23;20013;-43
2022/06/24 18:10:12;;;;;;;5.22;1.25;;;;;;;28.10;40.21;100474.34;6186881;23;20281;-44
2022/06/24 18:12:40;;;;;;;3.63;1.38;;;;;;;28.09;40.46;100477.84;6186096;23;20011;-44
2022/06/24 18:15:09;;;;;;;3.78;1.30;;;;;;;28.07;40.18;100479.59;6184874;23;20005;-43
2022/06/24 18:17:38;;;;;;;5.63;1.70;;;;;;;28.05;40.01;100473.47;6186194;23;20005;-45
2022/06/24 18:20:07;;;;;;;6.03;1.92;;;;;;;28.03;40.22;100481.41;6186428;23;20055;-43
2022/06/24 18:22:35;;;;;;;2.92;1.15;;;;;;;28.10;39.83;100471.69;6186077;23;20306;-43
2022/06/24 18:25:04;;;;;;;5.97;1.50;;;;;;;28.10;39.80;100468.22;6185602;23;20483;-43
2022/06/24 18:27:32;;;;;;;3.28;1.83;;;;;;;27.99;40.28;100479.69;6186215;23;20001;-44
2022/06/24 18:30:01;;;;;;;6.38;1.38;;;;;;;28.07;40.04;100484.03;6184562;23;20313;-43
2022/06/24 18:32:30;;;;;;;5.65;1.45;;;;;;;28.08;39.94;100501.59;6184591;23;20005;-43
2022/06/24 18:34:58;;;;;;;6.05;1.30;;;;;;;27.94;39.85;100475.38;6186529;23;20071;-44
2022/06/24 18:37:27;;;;;;;7.05;1.73;;;;;;;28.04;39.80;100496.34;6184789;23;20001;-46
2022/06/24 18:39:55;;;;;;;6.47;1.63;;;;;;;28.02;39.85;100498.13;6184514;23;20005;-43
2022/06/24 18:42:24;;;;;;;5.93;1.20;;;;;;;28.00;40.09;100506.97;6184668;23;20413;-47
2022/06/24 18:44:52;;;;;;;7.35;1.77;;;;;;;28.04;40.08;100506.91;6186207;23;20005;-51
2022/06/24 18:47:21;;;;;;;6.50;1.77;;;;;;;28.06;40.08;100514.78;6184176;23;20015;-47
2022/06/24 18:49:49;;;;;;;9.27;2.33;;;;;;;28.00;39.83;100510.44;6186212;23;20067;-46
2022/06/24 18:52:18;;;;;;;6.97;1.40;;;;;;;27.92;40.28;100511.44;6160038;23;20005;-44
2022/06/24 18:54:46;;;;;;;12.25;2.20;;;;;;;27.92;40.50;100517.59;6215158;23;20012;-44
2022/06/24 18:57:15;;;;;;;7.90;1.80;;;;;;;27.96;40.34;100521.06;6194921;23;20069;-45
2022/06/24 18:59:44;;;;;;;10.15;2.70;;;;;;;27.94;40.00;100517.56;6219205;23;20366;-43
2022/06/24 19:02:12;;;;;;;6.72;1.58;;;;;;;27.95;40.10;100525.47;6218661;23;20008;-43
2022/06/24 19:04:43;;;;;;;5.38;1.75;;;;;;;27.96;40.09;100527.22;6245786;23;20083;-44
2022/06/24 19:07:12;;;;;;;9.18;2.28;;;;;;;28.00;40.13;100525.41;6246246;23;20130;-43
2022/06/24 19:09:41;;;;;;;6.57;1.95;;;;;;;28.00;40.07;100533.31;6245868;23;20004;-44
2022/06/24 19:12:10;;;;;;;8.23;1.85;;;;;;;27.98;39.89;100529.81;6245291;23;20034;-44
2022/06/24 19:14:38;;;;;;;7.07;1.63;;;;;;;27.98;40.00;100532.47;6245505;23;20016;-44
2022/06/24 19:17:07;;;;;;;10.27;2.15;;;;;;;27.96;39.99;100534.22;6218954;23;20148;-48
2022/06/24 19:19:36;;;;;;;4.95;1.42;;;;;;;27.78;40.08;100508.97;6245712;23;20032;-44
2022/06/24 19:22:04;;;;;;;6.28;1.65;;;;;;;27.80;40.11;100523.00;6246030;23;20008;-44
2022/06/24 19:24:33;;;;;;;7.57;1.55;;;;;;;27.81;40.04;100520.34;6245610;23;20030;-43
2022/06/24 19:27:02;;;;;;;5.60;1.88;;;;;;;27.86;39.89;100544.88;6218970;23;20005;-43
2022/06/24 19:29:31;;;;;;;6.75;1.75;;;;;;;27.92;40.07;100557.13;6218971;23;20011;-43
2022/06/24 19:31:59;;;;;;;10.48;2.17;;;;;;;27.85;39.90;100539.63;6245983;23;20087;-43
2022/06/24 19:34:28;;;;;;;5.47;1.67;;;;;;;27.83;40.00;100546.66;6219333;23;20004;-44
2022/06/24 19:36:56;;;;;;;5.80;1.85;;;;;;;27.83;39.95;100544.91;6194186;23;20008;-43
2022/06/24 19:39:25;;;;;;;7.32;1.30;;;;;;;27.86;39.71;100544.88;6245564;23;20011;-44
2022/06/24 19:41:52;;;;;;;10.80;2.20;;;;;;;27.83;39.90;100547.56;6218787;23;20091;-43
2022/06/24 19:44:21;;;;;;;5.47;1.40;;;;;;;27.78;40.09;100549.34;6193590;23;20011;-43
2022/06/24 19:46:49;;;;;;;7.32;2.63;;;;;;;27.83;39.92;100554.56;6218871;23;20308;-44
2022/06/24 19:49:18;;;;;;;7.72;1.65;;;;;;;27.81;39.98;100553.69;6246032;23;20008;-44
2022/06/24 19:51:46;;;;;;;5.30;1.50;;;;;;;27.80;39.95;100557.25;6219122;23;20011;-43
2022/06/24 19:54:15;;;;;;;6.05;1.65;;;;;;;27.77;39.92;100555.50;6218754;23;20090;-43
2022/06/24 19:56:43;;;;;;;5.68;1.58;;;;;;;27.78;39.95;100559.88;6245527;23;20008;-43
2022/06/24 19:59:13;;;;;;;6.60;1.65;;;;;;;27.84;39.82;100569.50;6245921;23;20442;-43
2022/06/24 20:07:16;;;;;;;8.80;2.03;;;;;;;27.72;39.61;100586.28;6240173;23;20011;-44
2022/06/24 20:09:44;;;;;;;5.72;1.67;;;;;;;27.72;39.78;100576.63;6245855;23;20008;-43
2022/06/24 20:12:13;;;;;;;7.43;1.40;;;;;;;27.67;39.52;100565.25;6219339;23;20446;-43
2022/06/24 20:14:42;;;;;;;5.90;1.40;;;;;;;27.75;39.36;100587.16;6245773;23;20095;-53
2022/06/24 20:17:11;;;;;;;12.80;2.08;;;;;;;27.75;39.34;100594.16;6218810;23;20076;-44
2022/06/24 20:19:40;;;;;;;4.80;1.60;;;;;;;27.72;39.47;100597.72;6245961;23;20114;-44
2022/06/24 20:22:09;;;;;;;4.55;1.40;;;;;;;27.69;39.18;100597.75;6243842;23;20012;-43
2022/06/24 20:24:42;;;;;;;5.63;1.50;;;;;;;27.68;39.21;100600.41;6245473;23;20384;-45
2022/06/24 20:27:13;;;;;;;6.55;1.92;;;;;;;27.57;39.69;100605.75;6245583;23;20376;-43
2022/06/24 20:29:42;;;;;;;8.90;2.00;;;;;;;27.49;39.71;100610.19;6245467;23;20103;-48
2022/06/24 20:32:11;;;;;;;7.15;1.63;;;;;;;27.60;39.41;100619.78;6245950;23;20032;-43
2022/06/24 20:34:40;;;;;;;6.28;1.55;;;;;;;27.60;39.40;100622.41;6245292;23;20358;-44
2022/06/24 20:37:09;;;;;;;4.28;1.10;;;;;;;27.65;39.07;100616.22;6219243;23;20004;-45
2022/06/24 20:39:38;;;;;;;6.65;1.42;;;;;;;27.52;39.16;100616.34;6245352;23;20011;-43
2022/06/24 20:42:06;;;;;;;5.10;1.10;;;;;;;27.55;39.37;100624.19;6245958;23;20004;-46
2022/06/24 20:44:35;;;;;;;7.55;1.65;;;;;;;27.56;39.41;100636.47;6246030;23;20396;-46
2022/06/24 20:47:07;;;;;;;6.40;1.30;;;;;;;27.56;39.12;100636.47;6247305;23;20324;-43
2022/06/24 20:49:36;;;;;;;4.30;1.10;;;;;;;27.53;39.29;100640.91;6220436;23;20059;-43
2022/06/24 20:52:05;;;;;;;5.05;1.25;;;;;;;27.48;39.23;100629.50;6246995;23;20008;-44
2022/06/24 20:54:33;;;;;;;9.40;1.92;;;;;;;27.32;39.35;100613.78;6246673;23;20058;-43
2022/06/24 20:57:02;;;;;;;6.63;1.35;;;;;;;27.50;39.14;100640.91;6247398;23;20439;-44
2022/06/24 20:59:30;;;;;;;5.85;1.70;;;;;;;27.36;39.28;100641.88;6220592;23;20382;-43
2022/06/24 21:01:59;;;;;;;7.22;2.00;;;;;;;27.38;39.24;100648.00;6247164;23;20454;-44
2022/06/24 21:04:28;;;;;;;9.80;1.52;;;;;;;27.40;39.28;100642.72;6220677;23;20008;-43
2022/06/24 21:06:56;;;;;;;5.68;1.30;;;;;;;27.24;39.19;100626.16;6247329;23;20000;-43
2022/06/24 21:09:24;;;;;;;9.30;1.77;;;;;;;27.14;39.52;100625.31;6246979;23;20007;-44
2022/06/24 21:11:53;;;;;;;6.60;1.75;;;;;;;27.17;39.57;100643.75;6220607;23;20015;-43
2022/06/24 21:14:21;;;;;;;6.13;1.75;;;;;;;27.24;39.59;100647.22;6220069;23;20004;-43
2022/06/24 21:16:50;;;;;;;4.60;1.13;;;;;;;27.32;39.34;100655.06;6195787;23;20008;-43
2022/06/24 21:19:19;;;;;;;2.60;1.45;;;;;;;27.24;39.53;100653.34;6247380;23;20091;-48
2022/06/24 21:21:47;;;;;;;6.28;1.50;;;;;;;27.30;39.30;100661.22;6246725;23;20062;-45
2022/06/24 21:24:16;;;;;;;6.72;2.00;;;;;;;27.15;39.43;100659.53;6246543;23;20035;-43
2022/06/24 21:26:48;;;;;;;6.88;1.73;;;;;;;27.10;39.74;100671.88;6247005;23;20067;-45
2022/06/24 21:29:17;;;;;;;5.13;1.45;;;;;;;27.06;39.76;100656.97;6247233;23;20030;-43
2022/06/24 21:31:46;;;;;;;7.28;1.60;;;;;;;27.01;39.77;100663.13;6220203;23;20054;-43
2022/06/24 21:34:14;;;;;;;2.70;1.10;;;;;;;27.06;39.48;100664.84;6220422;23;20043;-43
2022/06/24 21:36:45;;;;;;;5.68;1.83;;;;;;;27.08;39.65;100683.28;6246258;23;20296;-43
2022/06/24 21:39:13;;;;;;;6.03;1.27;;;;;;;27.03;39.65;100674.53;6221457;23;20028;-43
2022/06/24 21:41:40;;;;;;;5.28;1.45;;;;;;;26.99;39.78;100676.28;6247064;23;20008;-43
2022/06/24 21:44:09;;;;;;;3.90;1.40;;;;;;;27.02;39.76;100686.81;6246699;23;20008;-44
2022/06/24 21:46:37;;;;;;;4.72;1.35;;;;;;;27.03;39.68;100682.44;6219861;23;20428;-43
2022/06/24 21:49:05;;;;;;;5.97;1.20;;;;;;;26.76;39.93;100653.56;6220094;23;20008;-43
2022/06/24 21:51:33;;;;;;;6.00;1.60;;;;;;;26.84;40.05;100678.09;6219951;23;20371;-43
2022/06/24 21:54:02;;;;;;;4.00;0.98;;;;;;;26.87;39.87;100687.75;6246101;23;20103;-43
2022/06/24 21:56:32;;;;;;;6.28;1.55;;;;;;;26.89;39.96;100691.25;6246589;23;20099;-43
2022/06/24 21:59:00;;;;;;;3.20;1.80;;;;;;;26.85;39.75;100681.63;6247104;23;20004;-43
2022/06/24 22:01:31;;;;;;;4.57;1.30;;;;;;;26.88;39.66;100678.09;6220754;23;20074;-48
2022/06/24 22:03:58;;;;;;;3.75;0.90;;;;;;;26.84;39.94;100672.84;6246559;23;20435;-44
2022/06/24 22:06:29;;;;;;;4.25;1.05;;;;;;;26.80;39.85;100681.66;6246075;23;20313;-44
2022/06/24 22:08:57;;;;;;;3.63;1.23;;;;;;;26.80;40.11;100686.03;6219447;23;20004;-48
2022/06/24 22:11:25;;;;;;;5.00;1.38;;;;;;;26.86;39.85;100687.75;6245779;23;20445;-44
2022/06/24 22:13:54;;;;;;;4.57;1.20;;;;;;;26.83;39.83;100688.66;6244802;23;20012;-43
2022/06/24 22:16:22;;;;;;;3.58;1.10;;;;;;;26.77;39.82;100686.88;6246164;23;20075;-44
2022/06/24 22:18:51;;;;;;;5.55;1.42;;;;;;;26.76;39.94;100678.97;6246297;23;20018;-47
2022/06/24 22:21:20;;;;;;;4.72;1.00;;;;;;;26.80;39.80;100686.91;6246058;23;20086;-44
2022/06/24 22:23:48;;;;;;;2.58;1.08;;;;;;;26.80;39.76;100689.53;6246252;23;20004;-54
2022/06/24 22:26:18;;;;;;;5.15;1.42;;;;;;;26.80;39.54;100692.19;6219568;23;20004;-45
2022/06/24 22:28:47;;;;;;;7.00;1.80;;;;;;;26.76;39.93;100693.03;6246323;23;20078;-46
2022/06/24 22:31:15;;;;;;;4.50;1.45;;;;;;;26.71;40.11;100694.78;6220223;23;20004;-46
2022/06/24 22:33:44;;;;;;;6.15;1.42;;;;;;;26.67;39.79;100682.50;6194609;23;20008;-42
2022/06/24 22:36:13;;;;;;;3.05;1.20;;;;;;;26.67;39.86;100680.78;6246047;23;20032;-48
2022/06/24 22:38:41;;;;;;;3.50;1.20;;;;;;;26.68;40.10;100686.91;6246208;23;20443;-43
2022/06/24 22:41:10;;;;;;;3.55;1.05;;;;;;;26.67;40.13;100693.03;6245558;23;20419;-44
2022/06/24 22:43:38;;;;;;;4.28;1.15;;;;;;;26.60;40.14;100689.53;6245658;23;20036;-43
2022/06/24 22:46:07;;;;;;;7.30;1.52;;;;;;;26.58;40.29;100693.06;6246096;23;20375;-47
2022/06/24 22:48:36;;;;;;;2.47;1.17;;;;;;;26.59;40.07;100689.56;6246047;23;20431;-43
2022/06/24 22:51:04;;;;;;;3.65;1.20;;;;;;;26.67;39.99;100679.88;6246024;23;20004;-43
2022/06/24 22:53:33;;;;;;;3.50;1.15;;;;;;;26.70;39.91;100690.41;6246554;23;20023;-43
2022/06/24 22:56:01;;;;;;;3.70;1.02;;;;;;;26.63;39.91;100686.06;6219711;23;20020;-43
2022/06/24 22:58:29;;;;;;;3.40;1.27;;;;;;;26.54;39.74;100682.56;6246119;23;20006;-43
2022/06/24 23:00:58;;;;;;;3.55;1.02;;;;;;;26.59;40.41;100690.44;6245754;23;20008;-43
2022/06/24 23:03:26;;;;;;;5.00;1.33;;;;;;;26.61;40.12;100686.03;6244317;23;20051;-43
2022/06/24 23:05:54;;;;;;;4.07;1.10;;;;;;;26.54;40.19;100687.81;6246065;23;20371;-43
2022/06/24 23:08:22;;;;;;;4.38;1.40;;;;;;;26.46;40.03;100679.06;6245597;23;20004;-43
2022/06/24 23:10:51;;;;;;;3.75;1.10;;;;;;;26.51;40.44;100693.06;6219282;23;20008;-46
2022/06/24 23:13:20;;;;;;;6.43;1.30;;;;;;;26.47;40.44;100688.72;6246328;23;20004;-43
2022/06/24 23:15:48;;;;;;;3.45;1.20;;;;;;;26.44;40.47;100685.19;6244392;23;20004;-43
2022/06/24 23:18:17;;;;;;;3.22;1.45;;;;;;;26.46;40.50;100688.69;6245733;23;20035;-48
2022/06/24 23:20:45;;;;;;;6.35;1.38;;;;;;;26.42;40.57;100693.09;6245550;23;20012;-43
2022/06/24 23:23:14;;;;;;;5.78;1.42;;;;;;;26.31;40.51;100672.06;6245411;23;20386;-43
2022/06/24 23:25:42;;;;;;;4.53;1.08;;;;;;;26.31;40.45;100681.75;6245656;23;20004;-43
2022/06/24 23:28:11;;;;;;;5.10;1.58;;;;;;;26.36;40.45;100679.94;6245761;23;20327;-42
2022/06/24 23:30:39;;;;;;;6.38;1.80;;;;;;;26.39;40.70;100685.22;6245775;23;20007;-43
2022/06/24 23:33:08;;;;;;;2.78;0.90;;;;;;;26.32;40.64;100683.47;6246064;23;20004;-43
2022/06/24 23:35:36;;;;;;;7.18;2.13;;;;;;;26.27;40.87;100674.72;6245911;23;20368;-44
2022/06/24 23:38:04;;;;;;;4.80;1.20;;;;;;;26.23;40.65;100681.72;6245193;23;20375;-43
2022/06/24 23:40:50;;;;;;;3.28;1.30;;;;;;;26.26;40.78;100686.13;6218556;23;20012;-47
2022/06/24 23:43:24;;;;;;;4.43;1.08;;;;;;;26.23;40.95;100682.59;6245863;23;20335;-43
2022/06/24 23:45:53;;;;;;;3.47;1.37;;;;;;;26.17;40.62;100674.72;6246187;23;20003;-43
2022/06/24 23:51:30;;;;;;;5.47;1.45;;;;;;;26.16;40.60;100675.59;6235665;23;20087;-43
2022/06/24 23:53:57;;;;;;;5.85;1.58;;;;;;;26.10;40.68;100662.44;6244747;23;20015;-45
2022/06/24 23:56:24;;;;;;;4.22;1.30;;;;;;;26.20;40.60;100677.34;6246273;23;20008;-43
2022/06/24 23:58:53;;;;;;;2.45;1.00;;;;;;;26.17;40.97;100674.72;6244489;23;20561;-47
